22° challenge de l'entité sonégienne - 2017


Challenge Soignies 2017

Soignies - 4° corrida du Marché de Noël - 2017

Dénomination   Soignies - 4° corrida du Marché de Noël - 2017   10 kms
Date   16/12/2017    15 h 00
Adresse  Hall Omnisport Dupont
 Rue de Cognebeau
 7060 Soignies
    Voir carte d'accès
Contact

 Olivier Trigallez

  

   
Courses  10 kms
 5 kms
 10 kms Han
 
 
Inscriptions    
Parcours      

        Palmares de la course :

Course

Catégorie

Vainqueur

10 kms Espoirs PEETERS Valentin LO BUE Thomas LECOMTE Mathieu
10 kms Seniors HAEGEMAN Ben VALET Maxime SERGEANT Mikaël
10 kms Vétérans 1 VANDERBECQ Pierre-Henri THIERRY Igor CHENUT Sébastien
10 kms Vétérans 2 MARTORANA Antonio RUSTIN Fabian GANA Jean-Thierry
10 kms Vétérans 3 SCHEERS Eric DEJONGHE Christian STOPPIE Filip
10 kms Vétérans 4 ERAERTS Willy KIN Georges SOWULA Jean
10 kms Dames DARDENNE Sarah RANO Kristel GAMME Doriane
10 kms Aînées 1 VRAY Valérie DETRY Marie LEE Li
10 kms Aînées 2 BAKRIM Fatima NOTEZ Nathalie HERNAUT Isabelle
10 kms Aînées 3 DE MUNCK Véronique VEKEMAN Bernadette RENARD Jacqueline
10 kms Corrida for Life DUPONT Eddy KENT David ZORZI Bruno
10 kms Corrida for Life BIERSET Valérie JANUTH Frances DELHELLE Nancy
5 kms Garçons DUQUESNE Loann CUVELIER Samuel SCARMURE Loann
5 kms Messieurs BRUSTEN Arthur D'AURILIO Marvin BRIFFEUIL Olivier
5 kms Corrida for Life DURIEU Christophe LORIMIER Frédéric
5 kms Filles MARBAIX Zoé MARBAIX Lyse KENDA Margaux
5 kms Dames LECAT Nathalie FREDERIC Thiphene DE VOS Véronique
5 kms Corrida for Live PHILIPPON Géraldine ERNAELSTEEN Eléna HONDERMARCQ Michèle
Course : 10 kms
Document PDF de la course
Pla. Pl.Cat Dossard Nom                       Catégorie     Temps     Course   Vitesse Min/Km
_____________________________________________________________________________________________
1 1 24 HAEGEMAN Ben Seniors 00:30:19 10 kms 17.811 3:22
2 2 116 VALET Maxime Seniors 00:30:21 10 kms 17.792 3:22
3 1 246 VANDERBECQ Pierre-Henri Vétérans 1 00:30:30 10 kms 17.704 3:23
4 3 107 SERGEANT Mikaël Seniors 00:31:04 10 kms 17.381 3:27
5 4 1 DUMONT Grégoire Seniors 00:31:08 10 kms 17.344 3:27
6 5 131 THIEBAUT Thimotee Seniors 00:31:11 10 kms 17.316 3:27
7 6 204 PRATTE Philippe Seniors 00:31:13 10 kms 17.298 3:28
8 7 25 THEMONT Jérôme Seniors 00:31:15 10 kms 17.279 3:28
9 8 159 TANIGNEAUX Cédric Seniors 00:31:17 10 kms 17.261 3:28
10 9 75 SOUDANT Nicolas Seniors 00:31:18 10 kms 17.252 3:28
11 10 85 LECLERE Charly Seniors 00:31:20 10 kms 17.234 3:28
12 11 158 ROOSENS Frans Seniors 00:31:25 10 kms 17.188 3:29
13 1 10007 DUPONT Eddy Corrida for Li00:31:30 10 kms 17.142 3:30
14 2 220 THIERRY Igor Vétérans 1 00:31:32 10 kms 17.124 3:30
15 12 130 DUFRANE Cyril Seniors 00:31:51 10 kms 16.954 3:32
16 3 310 CHENUT Sébastien Vétérans 1 00:32:16 10 kms 16.735 3:35
17 13 160 SEVENS Quentin Seniors 00:32:42 10 kms 16.513 3:38
18 14 278 FOUSS François Seniors 00:32:46 10 kms 16.480 3:38
19 15 238 SCARSET Stéphane Seniors 00:32:48 10 kms 16.463 3:38
20 16 26 PARENT Quentin Seniors 00:32:57 10 kms 16.388 3:39
21 4 143 FRANCOIS Benoît Vétérans 1 00:33:07 10 kms 16.305 3:40
22 17 138 FOSSEUR Tom Seniors 00:34:10 10 kms 15.804 3:47
23 18 240 HAENECOUR Pierre Seniors 00:34:16 10 kms 15.758 3:48
24 1 129 PEETERS Valentin Espoirs 00:34:24 10 kms 15.697 3:49
25 5 140 CLERBOUT Bruno Vétérans 1 00:34:26 10 kms 15.682 3:49
26 6 153 STERCKX Fabrice Vétérans 1 00:34:30 10 kms 15.652 3:50
27 7 263 LOMBARDO Bruno Vétérans 1 00:34:38 10 kms 15.591 3:50
28 8 146 MARIAGE Karim Vétérans 1 00:34:40 10 kms 15.576 3:51
29 19 106 WATTIAUX Benjamin Seniors 00:35:56 10 kms 15.027 3:59
30 20 122 DESCAMPS François Seniors 00:35:57 10 kms 15.020 3:59
31 1 137 MARTORANA Antonio Vétérans 2 00:36:00 10 kms 15.000 4:00
32 9 157 FRECOURT Xavier Vétérans 1 00:36:02 10 kms 14.986 4:00
33 21 87 LECOLLEY François Seniors 00:36:06 10 kms 14.958 4:00
34 10 237 DENGHIEN Laurent Vétérans 1 00:36:06 10 kms 14.958 4:00
35 1 268 SCHEERS Eric Vétérans 3 00:36:08 10 kms 14.944 4:00
36 22 164 JUANOS CABANAS Jordi Seniors 00:36:11 10 kms 14.923 4:01
37 23 177 BOURGOIS Gérémy Seniors 00:36:13 10 kms 14.910 4:01
38 11 267 LIEGOIS Laurent Vétérans 1 00:36:16 10 kms 14.889 4:01
39 12 124 HORLIN Gaëtan Vétérans 1 00:36:18 10 kms 14.876 4:02
40 13 282 BRUNEBARBE Joël Vétérans 1 00:36:20 10 kms 14.862 4:02
41 14 202 DURIE Benjamin Vétérans 1 00:36:40 10 kms 14.727 4:04
42 24 302 NAVEAU Sébastien Seniors 00:36:45 10 kms 14.693 4:05
43 15 225 PECCENINI Stéphane Vétérans 1 00:36:49 10 kms 14.667 4:05
44 25 29 LAVRY Olivier Seniors 00:36:51 10 kms 14.654 4:05
45 26 176 BROQUET Maxime Seniors 00:36:53 10 kms 14.640 4:05
46 27 272 FERRIER Rémy Seniors 00:37:02 10 kms 14.581 4:06
47 28 248 VANDERMARLIERE Guillaume Seniors 00:37:04 10 kms 14.568 4:07
48 2 80 RUSTIN Fabian Vétérans 2 00:37:07 10 kms 14.548 4:07
49 2 10003 KENT David Corrida for Li00:37:12 10 kms 14.516 4:08
50 3 10006 ZORZI Bruno Corrida for Li00:37:19 10 kms 14.470 4:08
51 29 23 FRUTOS Nicolas Seniors 00:37:20 10 kms 14.464 4:08
52 30 30 MATHIEU Niels Seniors 00:37:30 10 kms 14.400 4:10
53 3 172 GANA Jean-Thierry Vétérans 2 00:37:32 10 kms 14.387 4:10
54 16 20 SODDU Albano Vétérans 1 00:37:52 10 kms 14.260 4:12
55 17 207 YUMUJAK Hasan Vétérans 1 00:37:54 10 kms 14.248 4:12
56 4 290 POLOME Guy Vétérans 2 00:37:58 10 kms 14.223 4:13
57 31 169 DEVERGNIES Christophe Seniors 00:38:01 10 kms 14.204 4:13
58 18 163 JOACHIM Nicolas Vétérans 1 00:38:02 10 kms 14.198 4:13
59 32 120 CECERE Donato Seniors 00:38:06 10 kms 14.173 4:14
60 19 256 DUBOIS Michaël Vétérans 1 00:38:08 10 kms 14.160 4:14
61 1 294 DARDENNE Sarah Dames 00:38:14 10 kms 14.123 4:14 62 20 78 CLAMEBOUT Frédéric Vétérans 1 00:38:16 10 kms 14.111 4:15 63 2 57 LO BUE Thomas Espoirs 00:38:23 10 kms 14.068 4:15 64 33 205 LECOMTE Christophe Seniors 00:38:26 10 kms 14.050 4:16 65 4 10005 HAMELRYCKX Vincent Corrida for Li00:38:30 10 kms 14.025 4:16 66 34 45 GODFRIND Martin Seniors 00:38:32 10 kms 14.013 4:16 67 21 44 BRICHAUT Olivier Vétérans 1 00:38:34 10 kms 14.001 4:17 68 35 299 VANDENBUSSCHE François Seniors 00:39:01 10 kms 13.840 4:20 69 5 147 BAUDUIN Elzo Vétérans 2 00:39:04 10 kms 13.822 4:20 70 36 297 DEPRETS Eddy Seniors 00:39:12 10 kms 13.775 4:21 71 5 10011 BELKACEM Rachid Corrida for Li00:39:15 10 kms 13.757 4:21 72 37 117 PRACON Nicolas Seniors 00:39:18 10 kms 13.740 4:22 73 6 98 BLONDIAU Marc Vétérans 2 00:39:21 10 kms 13.722 4:22 74 7 127 WILLOCQ Jean-Luc Vétérans 2 00:39:23 10 kms 13.711 4:22 75 38 144 SPILTOIR Mathieu Seniors 00:39:30 10 kms 13.670 4:23 76 39 168 PAULET Gaëtan Seniors 00:39:41 10 kms 13.607 4:24 77 40 92 DUPONT Nicolas Seniors 00:39:43 10 kms 13.596 4:24 78 2 110 DEJONGHE Christian Vétérans 3 00:39:52 10 kms 13.545 4:25 79 41 276 HEYMANS Jérémy Seniors 00:39:54 10 kms 13.533 4:26 80 42 72 LECRON Fabian Seniors 00:39:57 10 kms 13.516 4:26 81 22 301 CHEVALIER Axel Vétérans 1 00:40:00 10 kms 13.500 4:26 82 8 18 DURANT Patrick Vétérans 2 00:40:06 10 kms 13.466 4:27 83 2 33 RANO Kristel Dames 00:40:10 10 kms 13.443 4:27 84 1 109 BAKRIM Fatima Aînées 2 00:40:17 10 kms 13.405 4:28 85 43 6 LEFEBVRE Pascal Seniors 00:40:18 10 kms 13.399 4:28 86 44 61 BERTRAND Dominique Seniors 00:40:19 10 kms 13.393 4:28 87 3 226 STOPPIE Filip Vétérans 3 00:40:21 10 kms 13.382 4:29 88 9 232 ABRAHAM Michel Vétérans 2 00:40:25 10 kms 13.360 4:29 89 10 108 SPEMANS Christophe Vétérans 2 00:40:35 10 kms 13.305 4:30 90 11 70 DE LAEVER Joël Vétérans 2 00:40:37 10 kms 13.295 4:30 91 45 304 BORZEE Christophe Seniors 00:40:40 10 kms 13.278 4:31 92 3 4 LECOMTE Mathieu Espoirs 00:40:41 10 kms 13.273 4:31 93 46 308 DOYEN Julien Seniors 00:40:44 10 kms 13.256 4:31 94 47 125 DEWINNE Julien Seniors 00:40:46 10 kms 13.246 4:31 95 23 3 LECOMTE Joël Vétérans 1 00:40:48 10 kms 13.235 4:32 96 48 173 LEBLON Marc Seniors 00:40:51 10 kms 13.219 4:32 97 49 174 DHOLANDER Grégoire Seniors 00:40:54 10 kms 13.202 4:32 98 50 214 HOST Arthur Seniors 00:40:56 10 kms 13.192 4:32 99 51 298 HENRIOULLE Jérôme Seniors 00:40:59 10 kms 13.176 4:33 100 4 244 CORDIER Ashley Espoirs 00:41:04 10 kms 13.149 4:33 101 52 152 SEVERINO Joseph Seniors 00:41:16 10 kms 13.085 4:35 102 53 155 FEKETE Clément Seniors 00:41:19 10 kms 13.069 4:35 103 12 309 FRONTEDDU Gian Mario Vétérans 2 00:41:21 10 kms 13.059 4:35 104 54 227 DE WINTER Julien Seniors 00:41:24 10 kms 13.043 4:36 105 55 216 CHERON Tony Seniors 00:41:26 10 kms 13.032 4:36 106 56 313 HACHEZ Simon Seniors 00:41:28 10 kms 13.022 4:36 107 24 77 DE CONINCK Benoît Vétérans 1 00:41:33 10 kms 12.996 4:37 108 57 274 TRAPANI Jimmy Seniors 00:41:35 10 kms 12.985 4:37 109 25 279 CUSCHERA Pino Vétérans 1 00:41:38 10 kms 12.970 4:37 110 58 53 FRAITURE Thomas Seniors 00:41:39 10 kms 12.965 4:37 111 3 51 GAMME Doriane Dames 00:41:41 10 kms 12.954 4:37 112 13 273 MINNE Etienne Vétérans 2 00:41:42 10 kms 12.949 4:38 113 4 141 CAMPORESI Octavio Vétérans 3 00:41:47 10 kms 12.923 4:38 114 59 291 POLOME Andy Seniors 00:41:49 10 kms 12.913 4:38 115 26 259 KENDA Damien Vétérans 1 00:42:00 10 kms 12.857 4:40 116 60 243 LEFEBVRE Paulin Seniors 00:42:10 10 kms 12.806 4:41 117 27 229 PORFIRIO Manuel Vétérans 1 00:42:11 10 kms 12.801 4:41 118 61 118 CRAVOTTA Salvatore Seniors 00:42:14 10 kms 12.786 4:41 119 62 305 HOUSSIAU Zous Seniors 00:42:16 10 kms 12.776 4:41 120 63 151 SEVERINO Thomas Seniors 00:42:20 10 kms 12.755 4:42 121 6 10015 LEVISSE Renaud Corrida for Li00:42:24 10 kms 12.735 4:42 122 1 10013 BIERSET Valérie Corrida for Li00:42:27 10 kms 12.720 4:43 123 28 260 HOST Vincent Vétérans 1 00:42:30 10 kms 12.705 4:43 124 7 10008 WAUTY Jean-François Corrida for Li00:42:33 10 kms 12.690 4:43 125 64 154 DE CLERCQ Nicolas Seniors 00:42:35 10 kms 12.681 4:43 126 1 60 VRAY Valérie Aînées 1 00:42:37 10 kms 12.671 4:44 127 14 59 HORLAIT Jean-Luc Vétérans 2 00:42:39 10 kms 12.661 4:44 128 15 21 TINEL François Vétérans 2 00:42:42 10 kms 12.646 4:44 129 5 245 VANDEN BOSSCHE Eric Espoirs 00:42:50 10 kms 12.607 4:45 130 16 251 DEREUME Pascal Vétérans 2 00:43:03 10 kms 12.543 4:47 131 65 311 ALLARD Quentin Seniors 00:43:05 10 kms 12.533 4:47 132 4 171 WILLEMART Marie-Eve Dames 00:43:07 10 kms 12.524 4:47 133 29 306 BASTIEN Gilles Vétérans 1 00:43:09 10 kms 12.514 4:47 134 66 170 HULIN Chris Seniors 00:43:11 10 kms 12.504 4:47 135 5 222 DE LEENER Jean-Marie Vétérans 3 00:43:13 10 kms 12.495 4:48 136 67 275 ROOSENS Marc Seniors 00:43:16 10 kms 12.480 4:48 137 30 283 GILMANT Cédric Vétérans 1 00:43:18 10 kms 12.471 4:48 138 17 73 DE WINTER Joël Vétérans 2 00:43:22 10 kms 12.451 4:49 139 68 289 DUJACQUIER Laurent Seniors 00:43:23 10 kms 12.447 4:49 140 31 285 BOURDEAUD'HUI Anthony Vétérans 1 00:43:26 10 kms 12.432 4:49 141 69 58 WATTIEZ Geoffrey Seniors 00:43:30 10 kms 12.413 4:50 142 70 296 JOURET Olivier Seniors 00:43:42 10 kms 12.356 4:51 143 32 277 CARLIER Joël Vétérans 1 00:43:45 10 kms 12.342 4:51 144 2 307 DETRY Marie Aînées 1 00:43:49 10 kms 12.324 4:52 145 6 211 PETIT Adelin Espoirs 00:43:51 10 kms 12.314 4:52 146 33 295 MARRA Antonio Vétérans 1 00:44:00 10 kms 12.272 4:53 147 18 209 DENAYER Vincent Vétérans 2 00:44:01 10 kms 12.268 4:53 148 6 221 LAURENT Alain Vétérans 3 00:44:08 10 kms 12.235 4:54 149 34 156 DELAUNOIS David Vétérans 1 00:44:14 10 kms 12.207 4:54 150 71 74 SANTY Anthony Seniors 00:44:17 10 kms 12.194 4:55 151 5 63 RASNEUR Isaline Dames 00:44:21 10 kms 12.175 4:55 152 72 81 RUSTIN Julien Seniors 00:44:25 10 kms 12.157 4:56 153 35 79 CAPON Mathieu Vétérans 1 00:44:27 10 kms 12.148 4:56 154 36 40 DUQUESNE Stéphane Vétérans 1 00:44:29 10 kms 12.139 4:56 155 37 99 BOQUET Frédéric Vétérans 1 00:44:32 10 kms 12.125 4:56 156 19 55 THIENPONT Ivan Vétérans 2 00:44:34 10 kms 12.116 4:57 157 20 84 SPITALERI Mario Vétérans 2 00:44:36 10 kms 12.107 4:57 158 38 31 LOBET Rémy Vétérans 1 00:44:38 10 kms 12.098 4:57 159 21 16 VERPLECHT Thierry Vétérans 2 00:44:39 10 kms 12.094 4:57 160 22 281 DEPAUW Marc Vétérans 2 00:44:42 10 kms 12.080 4:58 161 23 219 BAUDUIN Didier Vétérans 2 00:44:43 10 kms 12.076 4:58 162 1 242 DE MUNCK Véronique Aînées 3 00:44:47 10 kms 12.058 4:58 163 7 239 BERDOUX Jacques Vétérans 3 00:44:49 10 kms 12.049 4:58 164 8 10012 MALBRECQ Alain Corrida for Li00:44:51 10 kms 12.040 4:59 165 24 14 VERHIMST Eric Vétérans 2 00:44:53 10 kms 12.031 4:59 166 3 35 LEE Li Aînées 1 00:44:55 10 kms 12.022 4:59 167 25 83 BEIGNE Francis Vétérans 2 00:44:57 10 kms 12.013 4:59 168 26 105 RENARD Didier Vétérans 2 00:44:58 10 kms 12.008 4:59 169 2 134 NOTEZ Nathalie Aînées 2 00:45:02 10 kms 11.991 5:00 170 73 37 ANSCIAUX Benjamin Seniors 00:45:10 10 kms 11.955 5:01 171 74 249 QUEVY Lionel Seniors 00:45:14 10 kms 11.938 5:01 172 39 149 POLLONI Alain Vétérans 1 00:45:17 10 kms 11.924 5:01 173 75 104 TAIBI Julien Seniors 00:45:19 10 kms 11.916 5:02 174 76 224 JACQUEMIN Jordan Seniors 00:45:21 10 kms 11.907 5:02 175 77 50 GONCALVES FARIA John Seniors 00:45:22 10 kms 11.903 5:02 176 78 280 BARBERA Gilles Seniors 00:45:25 10 kms 11.889 5:02 177 40 241 DECAMPS Thierry Vétérans 1 00:45:27 10 kms 11.881 5:03 178 41 300 DEVOS Franck Vétérans 1 00:45:29 10 kms 11.872 5:03 179 79 128 RIZZUTO Antonio Seniors 00:45:32 10 kms 11.859 5:03 180 42 215 FECAROTTE Salvatore Vétérans 1 00:45:33 10 kms 11.855 5:03 181 2 114 VEKEMAN Bernadette Aînées 3 00:45:35 10 kms 11.846 5:03 182 4 7 LAMBRET Christelle Aînées 1 00:45:36 10 kms 11.842 5:04 183 1 101 ERAERTS Willy Vétérans 4 00:46:00 10 kms 11.739 5:06 184 7 36 BERTAU Arthur Espoirs 00:46:04 10 kms 11.722 5:07 185 3 132 HERNAUT Isabelle Aînées 2 00:46:06 10 kms 11.713 5:07 186 27 167 QUITTELIER Frédéric Vétérans 2 00:46:09 10 kms 11.700 5:07 187 80 312 ERROVI YOUNNES Seniors 00:46:13 10 kms 11.684 5:08 188 2 10010 JANUTH Frances Corrida for Li00:46:18 10 kms 11.663 5:08 189 28 271 MARTENS Philippe Vétérans 2 00:46:19 10 kms 11.658 5:08 190 81 41 DALL'OLIO Emmanuel Seniors 00:46:25 10 kms 11.633 5:09 191 29 123 TEGAS Giovanni Vétérans 2 00:46:27 10 kms 11.625 5:09 192 30 19 BARBIEUX Jean-Luc Vétérans 2 00:46:31 10 kms 11.608 5:10 193 31 82 IZZARELLI Donato Vétérans 2 00:46:32 10 kms 11.604 5:10 194 4 208 DEMAIN Corinne Aînées 2 00:46:36 10 kms 11.587 5:10 195 32 17 LUNELLI Diego Vétérans 2 00:46:39 10 kms 11.575 5:11 196 43 145 VAN DEN BERG Frédéric Vétérans 1 00:46:41 10 kms 11.567 5:11 197 44 10 BERTAU Yves Vétérans 1 00:46:42 10 kms 11.563 5:11 198 5 258 WANTIEZ Christelle Aînées 1 00:46:44 10 kms 11.554 5:11 199 45 150 ROUSSEAU Sébastien Vétérans 1 00:46:52 10 kms 11.522 5:12 200 33 68 HOUX Jean-Michel Vétérans 2 00:47:20 10 kms 11.408 5:15 201 82 49 DENIS Olivier Seniors 00:47:28 10 kms 11.376 5:16 202 83 48 PETIT Vincent Seniors 00:47:30 10 kms 11.368 5:16 203 5 266 IANNUCCI Cathy Aînées 2 00:47:38 10 kms 11.336 5:17 204 84 264 LUCION Alexandre Seniors 00:47:40 10 kms 11.328 5:17 205 34 292 BROHEZ Bruno Vétérans 2 00:47:43 10 kms 11.316 5:18 206 6 250 DUCORON Isabelle Aînées 2 00:47:45 10 kms 11.308 5:18 207 35 212 BLEUSSE Christian Vétérans 2 00:47:47 10 kms 11.301 5:18 208 36 22 LEMAIRE Hubert Vétérans 2 00:47:55 10 kms 11.269 5:19 209 6 66 PROVOOST Anne-Elise Dames 00:47:59 10 kms 11.253 5:19 210 8 43 HUON Michel Vétérans 3 00:48:01 10 kms 11.246 5:20 211 46 228 CLINQUART Jean-Christophe Vétérans 1 00:48:04 10 kms 11.234 5:20 212 47 203 BILLOT Pierre Vétérans 1 00:48:07 10 kms 11.222 5:20 213 7 100 BECHET Cécile Aînées 2 00:48:09 10 kms 11.214 5:21 214 6 255 MOTTE Stéphanie Aînées 1 00:48:10 10 kms 11.211 5:21 215 85 254 DELATTE Grégoire Seniors 00:48:14 10 kms 11.195 5:21 216 7 65 STASSEN Lucie Dames 00:48:15 10 kms 11.191 5:21 217 8 133 EDOM Mélanie Dames 00:48:18 10 kms 11.180 5:22 218 86 261 WILLEMYNS Alexis Seniors 00:48:20 10 kms 11.172 5:22 219 9 270 DELEU Karin Dames 00:48:24 10 kms 11.157 5:22 220 8 210 FLAMENT Emery Espoirs 00:48:26 10 kms 11.149 5:22 221 37 269 DELEU Patrick Vétérans 2 00:48:28 10 kms 11.141 5:23 222 8 253 DEMEULENAERE Sophie Aînées 2 00:48:30 10 kms 11.134 5:23 223 38 142 RONDEAU Philippe Vétérans 2 00:48:32 10 kms 11.126 5:23 224 7 34 DUQUESNE Yannick Aînées 1 00:48:36 10 kms 11.111 5:24 225 10 69 BREDAT Elise Dames 00:48:38 10 kms 11.103 5:24 226 87 91 MUYLAERT Adrien Seniors 00:48:40 10 kms 11.095 5:24 227 88 52 CULLUS Thomas Seniors 00:48:43 10 kms 11.084 5:24 228 39 175 NDAYISABA Janvier Vétérans 2 00:48:46 10 kms 11.073 5:25 229 89 95 VANDERSCHELDEN Pierre Seniors 00:48:58 10 kms 11.027 5:26 230 48 97 LAQUOY Didier Vétérans 1 00:49:00 10 kms 11.020 5:26 231 8 200 DELMOITIEZ Bettina Aînées 1 00:49:02 10 kms 11.012 5:26 232 90 201 DELMOITIEZ François Seniors 00:49:04 10 kms 11.005 5:27 233 9 303 NAVEAU Céline Aînées 1 00:49:11 10 kms 10.979 5:27 234 10 293 FRAU Fabienne Aînées 1 00:49:17 10 kms 10.957 5:28 235 40 62 GOSSET Didier Vétérans 2 00:49:19 10 kms 10.949 5:28 236 41 126 JOLY Michel Vétérans 2 00:49:32 10 kms 10.901 5:30 237 49 257 BRANCATO Eric Vétérans 1 00:49:34 10 kms 10.894 5:30 238 91 284 DARCK Jonathan Seniors 00:49:58 10 kms 10.807 5:33 239 92 42 GOURDIN Julien Seniors 00:50:03 10 kms 10.789 5:33 240 11 76 VANDERLIN Charlène Dames 00:50:05 10 kms 10.782 5:33 241 12 32 SANTANA Raki Dames 00:50:07 10 kms 10.774 5:34 242 9 166 LENCLU Isabelle Aînées 2 00:50:10 10 kms 10.764 5:34 243 2 112 KIN Georges Vétérans 4 00:50:13 10 kms 10.753 5:34 244 10 178 MIGNON Marylène Aînées 2 00:50:15 10 kms 10.746 5:35 245 3 111 RENARD Jacqueline Aînées 3 00:50:18 10 kms 10.735 5:35 246 42 247 SURIANO Giorgio Vétérans 2 00:50:20 10 kms 10.728 5:35 247 43 39 LOSSIGNOL Dominique Vétérans 2 00:50:21 10 kms 10.724 5:35 248 4 38 DUPRIEZ Beatrice Aînées 3 00:50:22 10 kms 10.721 5:35 249 9 103 HANOTEAUX Raymond Vétérans 3 00:50:29 10 kms 10.696 5:36 250 11 206 TONSENST Sarah Aînées 2 00:50:47 10 kms 10.633 5:38 251 50 113 HOPPEN Alain Vétérans 1 00:50:50 10 kms 10.622 5:38 252 51 287 HENRY Philippe Vétérans 1 00:50:57 10 kms 10.598 5:39 253 52 217 DUEZ Christophe Vétérans 1 00:51:11 10 kms 10.550 5:41 254 3 10014 DELHELLE Nancy Corrida for Li00:51:38 10 kms 10.458 5:44 255 4 10009 HALLOY Cindy Corrida for Li00:51:41 10 kms 10.448 5:44 256 9 10002 MICHEZ Maxime Corrida for Li00:51:54 10 kms 10.404 5:46 257 93 252 EECKHOUT Kris Seniors 00:51:56 10 kms 10.397 5:46 258 13 64 STASSEN Lucie Dames 00:52:17 10 kms 10.328 5:48 259 94 67 HAEZEBROUCK Matthieu Seniors 00:52:19 10 kms 10.321 5:48 260 10 90 ESTIEVENART Bernard Vétérans 3 00:52:56 10 kms 10.201 5:52 261 44 56 VERSTICHEL Thierry Vétérans 2 00:52:59 10 kms 10.191 5:53 262 95 314 KANVIN David Seniors 00:53:08 10 kms 10.163 5:54 263 14 9 RESSELER Perrine Dames 00:53:35 10 kms 10.077 5:57 264 15 8 GRENIER Lauranne Dames 00:53:38 10 kms 10.068 5:57 265 96 262 FAUCONNIER Julien Seniors 00:53:40 10 kms 10.062 5:57 266 53 148 SILVESTRE Laurent Vétérans 1 00:53:42 10 kms 10.055 5:58 267 5 10004 GOURDIN Justine Corrida for Li00:53:45 10 kms 10.046 5:58 268 11 46 RICHET Pauline Aînées 1 00:53:47 10 kms 10.040 5:58 269 54 47 MEYVISCH Jean-Christophe Vétérans 1 00:53:48 10 kms 10.037 5:58 270 45 165 DEHON Emmanuel Vétérans 2 00:53:54 10 kms 10.018 5:59 271 12 218 COTTON Caroline Aînées 2 00:53:57 10 kms 10.009 5:59 272 55 233 DEGAND François Vétérans 1 00:53:59 10 kms 10.003 5:59 273 97 88 STALON Vincent Seniors 00:54:10 10 kms 9.969 6:01 274 12 102 ROMBAUX Vinciane Aînées 1 00:54:29 10 kms 9.911 6:03 275 6 10001 DEGREVE Natacha Corrida for Li00:54:55 10 kms 9.833 6:06 276 46 265 LUCION Vincent Vétérans 2 00:55:14 10 kms 9.776 6:08 277 5 223 MAUS Madeleine Aînées 3 00:56:21 10 kms 9.582 6:15 278 13 96 DECROES Audrey Aînées 1 00:57:00 10 kms 9.473 6:20 279 11 115 TARIN Jean-Paul Vétérans 3 00:57:02 10 kms 9.468 6:20 280 56 286 RICHE Gil Vétérans 1 00:57:04 10 kms 9.462 6:20 281 14 235 DECAMPS Delphine Aînées 1 00:57:07 10 kms 9.454 6:20 282 13 54 BOQUET Hélène Aînées 2 00:57:13 10 kms 9.437 6:21 283 16 136 ROLAND Coralie Dames 00:57:19 10 kms 9.421 6:22 284 98 135 CHIVOT Quentin Seniors 00:57:21 10 kms 9.415 6:22 285 15 162 PIERART Myriam Aînées 1 00:57:23 10 kms 9.410 6:22 286 12 71 TOPART André Vétérans 3 00:57:25 10 kms 9.404 6:22 287 57 161 BIENFAIT Marc Vétérans 1 00:57:27 10 kms 9.399 6:23 288 13 94 VANDERSCHELDEN Pierre Vétérans 3 00:57:33 10 kms 9.383 6:23 289 6 2 FERAIN Thérèse Aînées 3 00:58:02 10 kms 9.304 6:26 290 7 121 TORFS Christine Aînées 3 00:58:13 10 kms 9.275 6:28 291 14 93 BODART Catherine Aînées 2 00:58:46 10 kms 9.188 6:31 292 3 119 SOWULA Jean Vétérans 4 00:58:53 10 kms 9.170 6:32 293 99 28 CROMBEZ Julien Seniors 00:59:48 10 kms 9.030 6:38 294 16 236 DECAMPS Stéphanie Aînées 1 01:01:48 10 kms 8.737 6:52 295 58 234 DEGAND Vincent Vétérans 1 01:02:27 10 kms 8.646 6:56 296 17 86 BERLAND Ophélie Dames 01:02:38 10 kms 8.621 6:57 297 8 288 SURDANT Christine Aînées 3 01:05:13 10 kms 8.280 7:14 298 47 89 RENARD Patrick Vétérans 2 01:05:15 10 kms 8.275 7:15
Course : 5 kms
Document PDF de la course
Pla. Pl.Cat Dossard Nom                       Catégorie     Temps     Course   Vitesse Min/Km
_____________________________________________________________________________________________
1 1 540 BRUSTEN Arthur Messieurs 00:17:09 5 kms 17.492 3:25
2 2 552 D'AURILIO Marvin Messieurs 00:17:36 5 kms 17.045 3:31
3 3 607 BRIFFEUIL Olivier Messieurs 00:17:42 5 kms 16.949 3:32
4 4 505 VANBELLAIENGH Julien Messieurs 00:18:02 5 kms 16.635 3:36
5 5 581 GOBERT Christophe Messieurs 00:18:40 5 kms 16.071 3:44
6 6 615 DARQUENNE Guillaume Messieurs 00:18:51 5 kms 15.915 3:46
7 7 504 LENVAIN Jean-François Messieurs 00:19:26 5 kms 15.437 3:53
8 8 614 MAHIA Sébastien Messieurs 00:19:29 5 kms 15.397 3:53
9 9 527 IUGHCHA Ilies Messieurs 00:20:10 5 kms 14.876 4:02
10 1 604 LECAT Nathalie Dames 00:20:31 5 kms 14.622 4:06 11 10 526 CLEYMANS Jason Messieurs 00:20:45 5 kms 14.457 4:09 12 11 613 BESSEMS Arthur Messieurs 00:20:49 5 kms 14.411 4:09 13 12 529 DRICOT Loïc Messieurs 00:20:50 5 kms 14.400 4:10 14 13 502 STASSIN Stéphane Messieurs 00:21:31 5 kms 13.942 4:18 15 14 609 ROTONDO Loris Messieurs 00:21:35 5 kms 13.899 4:19 16 15 619 CECI Michel Messieurs 00:21:37 5 kms 13.878 4:19 17 16 590 DAMBRUN Jordan Messieurs 00:21:59 5 kms 13.646 4:23 18 1 522 DUQUESNE Loann Garçons 00:22:12 5 kms 13.513 4:26 19 2 546 CUVELIER Samuel Garçons 00:22:22 5 kms 13.412 4:28 20 3 525 SCARMURE Loann Garçons 00:22:40 5 kms 13.235 4:32 21 17 12 XHEMALAJ Eneo Messieurs 00:23:01 5 kms 13.034 4:36 22 18 538 CLAUDE Gabriel Messieurs 00:23:08 5 kms 12.968 4:37 23 19 593 SONCK Jozef Messieurs 00:23:16 5 kms 12.893 4:39 24 2 597 FREDERIC Thiphene Dames 00:23:27 5 kms 12.793 4:41 25 20 589 GALLUCCIO Antonio Messieurs 00:24:13 5 kms 12.388 4:50 26 3 599 DE VOS Véronique Dames 00:24:18 5 kms 12.345 4:51 27 21 618 PAGE Thibaut Messieurs 00:24:22 5 kms 12.311 4:52 28 22 584 VANBELLAIENGH Marc Messieurs 00:24:29 5 kms 12.253 4:53 29 23 15 DESCAMPS Tangui Messieurs 00:24:34 5 kms 12.211 4:54 30 1 578 MARBAIX Zoé Filles 00:24:40 5 kms 12.162 4:56 31 4 547 CUVELIER Léonie Dames 00:24:42 5 kms 12.145 4:56 32 24 602 DERUYTER Didier Messieurs 00:24:45 5 kms 12.121 4:57 33 25 528 BEERENS Benjamin Messieurs 00:24:54 5 kms 12.048 4:58 34 4 595 TE DOMANGE Noah Garçons 00:24:57 5 kms 12.024 4:59 35 26 542 EYLENBOSCH Gaston Messieurs 00:25:00 5 kms 12.000 5:00 36 27 568 TINCK Bertrand Messieurs 00:25:03 5 kms 11.976 5:00 37 5 622 ROSSAY Nathan Garçons 00:25:28 5 kms 11.780 5:05 38 28 620 ROSSAY Geoffrey Messieurs 00:25:33 5 kms 11.741 5:06 39 29 580 CEUPPENS Patrick Messieurs 00:25:42 5 kms 11.673 5:08 40 30 617 THUNUS Jean-Philippe Messieurs 00:26:28 5 kms 11.335 5:17 41 5 594 CINCO Amelita Dames 00:26:34 5 kms 11.292 5:18 42 31 621 ROSSAY Anthony Messieurs 00:27:11 5 kms 11.036 5:26 43 32 523 PEREZ Sebastian Messieurs 00:27:17 5 kms 10.995 5:27 44 6 537 THIENPONT Martin Garçons 00:27:25 5 kms 10.942 5:29 45 33 588 GULLOTTA Antonino Messieurs 00:27:35 5 kms 10.876 5:31 46 6 559 GOMINS Amélie Dames 00:27:37 5 kms 10.863 5:31 47 34 558 PIRON Morgan Messieurs 00:27:39 5 kms 10.849 5:31 48 7 569 WALRAVENS Léa Dames 00:27:41 5 kms 10.836 5:32 49 35 583 LORE Maxence Messieurs 00:27:45 5 kms 10.810 5:33 50 2 577 MARBAIX Lyse Filles 00:27:47 5 kms 10.797 5:33 51 3 606 KENDA Margaux Filles 00:27:50 5 kms 10.778 5:34 52 1 50008 DURIEU Christophe Corrida for Li00:27:55 5 kms 10.746 5:35 53 8 567 LETERME Vanessa Dames 00:28:01 5 kms 10.707 5:36 54 36 591 WINE Sébastien Messieurs 00:28:41 5 kms 10.459 5:44 55 37 503 STASSIN Lucas Messieurs 00:29:02 5 kms 10.332 5:48 56 38 11 THIRION Xavier Messieurs 00:29:05 5 kms 10.315 5:49 57 9 549 DAUCHOT Camille Dames 00:29:09 5 kms 10.291 5:49 58 39 507 DEPLUS Alain Messieurs 00:29:31 5 kms 10.163 5:54 59 1 50009 PHILIPPON Géraldine Corrida for Li00:29:43 5 kms 10.095 5:56 60 40 556 DEUDAL Dimitri Messieurs 00:30:08 5 kms 9.955 6:01 61 41 1000 DELATTRE Fabrice Messieurs 00:30:10 5 kms 9.944 6:02 62 10 553 VANDENBERGHE Marie-Noëlle Dames 00:30:23 5 kms 9.873 6:04 63 2 50004 LORIMIER Frédéric Corrida for Li00:30:29 5 kms 9.841 6:05 64 11 536 THIENPONT Marie Dames 00:30:31 5 kms 9.830 6:06 65 12 579 BOQUET Aliénor Dames 00:30:34 5 kms 9.814 6:06 66 42 539 CLAUDE Joël Messieurs 00:31:44 5 kms 9.453 6:20 67 13 610 SEVENS Isabelle Dames 00:31:49 5 kms 9.429 6:21 68 14 611 MOURY Michmich Dames 00:31:53 5 kms 9.409 6:22 69 15 612 BASTIEN Laurence Dames 00:31:55 5 kms 9.399 6:23 70 43 592 BOULANGER Joël Messieurs 00:31:58 5 kms 9.384 6:23 71 44 616 LAFFINEUR Christian Messieurs 00:32:00 5 kms 9.375 6:24 72 16 562 BULTEZ Katty Dames 00:32:03 5 kms 9.360 6:24 73 45 603 SITTINIERE Guiseppe Messieurs 00:32:13 5 kms 9.311 6:26 74 46 586 LAENENS Francis Messieurs 00:32:18 5 kms 9.287 6:27 75 2 50003 ERNAELSTEEN Eléna Corrida for Li00:32:21 5 kms 9.273 6:28 76 17 563 MAQUIN Marielle Dames 00:32:24 5 kms 9.259 6:28 77 18 509 LEPAPE Audrey Dames 00:32:26 5 kms 9.249 6:29 78 19 598 WEEMANS Lauren Dames 00:32:33 5 kms 9.216 6:30 79 3 50001 HONDERMARCQ Michèle Corrida for Li00:32:38 5 kms 9.193 6:31 80 47 501 DUPONT André Messieurs 00:32:41 5 kms 9.178 6:32 81 48 519 AJZEN Michel Messieurs 00:32:50 5 kms 9.137 6:34 82 20 608 MARCOU Angélique Dames 00:32:56 5 kms 9.109 6:35 83 7 535 THIENPONT Pierre Garçons 00:33:02 5 kms 9.081 6:36 84 21 585 SCHOUPPE Anita Dames 00:33:05 5 kms 9.068 6:37 85 22 533 DOSCH Christelle Dames 00:33:20 5 kms 9.000 6:40 86 49 530 ROMANUS Pierre Messieurs 00:33:22 5 kms 8.991 6:40 87 50 544 AUDRIT Emmanuel Messieurs 00:33:33 5 kms 8.941 6:42 88 4 50010 HERBECQ Anne Corrida for Li00:33:37 5 kms 8.924 6:43 89 23 596 POLIART Valérie Dames 00:33:39 5 kms 8.915 6:43 90 24 534 CORTEMBOS Gaétane Dames 00:33:42 5 kms 8.902 6:44 91 25 545 CALIGIONE Carine Dames 00:33:43 5 kms 8.897 6:44 92 26 543 LEBLUS Ingrid Dames 00:33:46 5 kms 8.884 6:45 93 5 50011 DELLOT Nathalie Corrida for Li00:33:50 5 kms 8.866 6:46 94 27 550 LABROUSSE Emilie Dames 00:33:55 5 kms 8.845 6:47 95 28 521 DESAGRE Sabine Dames 00:33:57 5 kms 8.836 6:47 96 29 551 HAUTENAUVE Sylvie Dames 00:33:59 5 kms 8.827 6:47 97 51 582 GOMEZ Edouard Messieurs 00:34:01 5 kms 8.819 6:48 98 52 601 DRESE Arnaud Messieurs 00:34:28 5 kms 8.704 6:53 99 30 605 ROUSSEAUX Florence Dames 00:35:05 5 kms 8.551 7:01 100 31 541 BEELEN Lisette Dames 00:35:13 5 kms 8.518 7:02 101 53 531 MEURICE Renaud Messieurs 00:35:19 5 kms 8.494 7:03 102 8 516 COLLET Siméon Garçons 00:36:22 5 kms 8.249 7:16 103 32 518 DECHAMPS Cassandra Dames 00:36:25 5 kms 8.237 7:17 104 33 510 MEIRHAEGHE Ann Dames 00:36:31 5 kms 8.215 7:18 105 34 517 PAINDAVOINE Isabelle Dames 00:36:34 5 kms 8.204 7:18 106 54 512 BODDEN Michaël Messieurs 00:36:36 5 kms 8.196 7:19 107 55 513 GAETA Evaristo Messieurs 00:36:38 5 kms 8.189 7:19 108 35 508 DELCROIX Marie Dames 00:37:22 5 kms 8.028 7:28 109 36 554 ROLAND Amélie Dames 00:37:26 5 kms 8.014 7:29 110 56 555 ROLAND Philippe Messieurs 00:37:28 5 kms 8.007 7:29 111 6 50005 FONTEYNE Fabienne Corrida for Li00:37:38 5 kms 7.971 7:31 112 57 561 CARLIER Luc Messieurs 00:38:12 5 kms 7.853 7:38 113 37 557 THOMAS Florence Dames 00:39:07 5 kms 7.669 7:49 114 38 560 GOMINS Stéphanie Dames 00:39:09 5 kms 7.662 7:49 115 39 600 PARMENTIER Karine Dames 00:39:48 5 kms 7.537 7:57 116 4 566 MALREE Célia Filles 00:40:12 5 kms 7.462 8:02 117 58 564 MALREE Christophe Messieurs 00:40:14 5 kms 7.456 8:02 118 40 623 CONTINO MARIANNA Dames 00:42:46 5 kms 7.014 8:33 119 7 50006 FONTEYNE Elodie Corrida for Li01:00:47 5 kms 4.935 12:09
Challenge Soignies 2017